Time;durP1;ratioP1;P1;durP2;ratioP2;P2;SDS_P1;SDS_P2;PMS_P1;PMS_P2;Temp;Humidity;BMP_temperature;BMP_pressure;BME280_temperature;BME280_humidity;BME280_pressure;Samples;Min_cycle;Max_cycle;Signal;HPM_P1;HPM_P2
2022/02/28 00:00:59;;;;;;;;;;;;;;;4.54;38.64;102056.81;5039556;28;20448;-82
2022/02/28 00:03:44;;;;;;;9.20;3.70;;;;;;;3.90;40.72;102058.00;5055802;28;19917;-82
2022/02/28 00:06:29;;;;;;;4.38;2.60;;;;;;;4.06;41.50;102054.56;5052193;28;20548;-81
2022/02/28 00:09:13;;;;;;;21.23;8.40;;;;;;;3.88;40.97;102060.09;5038741;28;20048;-81
2022/02/28 00:11:58;;;;;;;19.30;8.05;;;;;;;4.13;42.32;102057.94;5036983;28;20053;-82
2022/02/28 00:14:43;;;;;;;7.95;3.92;;;;;;;4.14;40.11;102064.94;5039886;28;20413;-79
2022/02/28 00:17:28;;;;;;;3.70;3.03;;;;;;;4.39;39.91;102061.94;5051877;28;20425;-82
2022/02/28 00:20:16;;;;;;;5.88;3.20;;;;;;;4.32;40.25;102061.25;5042566;28;20048;-81
2022/02/28 00:23:00;;;;;;;6.38;3.80;;;;;;;4.32;39.93;102064.75;5040485;28;20064;-80
2022/02/28 00:25:45;;;;;;;7.38;3.45;;;;;;;4.47;39.65;102053.44;5038287;28;20044;-81
2022/02/28 00:28:30;;;;;;;5.60;2.95;;;;;;;4.28;42.43;102055.53;5037130;28;20056;-79
2022/02/28 00:31:14;;;;;;;6.47;2.80;;;;;;;3.75;41.77;102046.94;5054802;28;20525;-81
2022/02/28 00:33:59;;;;;;;5.32;3.10;;;;;;;3.40;43.15;102050.44;5042837;28;20055;-81
2022/02/28 00:36:44;;;;;;;10.52;3.20;;;;;;;3.78;41.48;102046.44;5055652;28;20543;-80
2022/02/28 00:39:29;;;;;;;4.18;3.00;;;;;;;3.67;41.53;102052.66;5045668;28;20059;-81
2022/02/28 00:42:14;;;;;;;7.03;3.65;;;;;;;4.03;41.03;102052.34;5043724;28;20044;-81
2022/02/28 00:44:59;;;;;;;5.82;3.00;;;;;;;3.89;41.47;102050.97;5041846;28;20059;-81
2022/02/28 00:47:44;;;;;;;5.65;3.00;;;;;;;3.92;41.11;102050.50;5045378;28;20501;-81
2022/02/28 00:50:29;;;;;;;6.38;3.25;;;;;;;3.84;40.87;102050.88;5043797;28;20056;-81
2022/02/28 00:53:14;;;;;;;13.80;2.95;;;;;;;4.02;40.57;102048.00;5046821;28;20044;-80
2022/02/28 00:55:59;;;;;;;4.65;3.08;;;;;;;4.34;39.85;102047.53;5044764;28;20064;-80
2022/02/28 00:58:44;;;;;;;6.03;2.83;;;;;;;4.21;40.42;102040.59;5044239;28;20052;-81
2022/02/28 01:01:28;;;;;;;3.83;2.60;;;;;;;3.72;41.12;102042.81;5042124;28;20056;-79
2022/02/28 01:04:14;;;;;;;7.82;2.80;;;;;;;3.71;41.02;102043.88;5054375;28;20040;-81
2022/02/28 01:06:59;;;;;;;5.82;2.70;;;;;;;3.75;40.71;102030.78;5041929;28;20045;-81
2022/02/28 01:09:44;;;;;;;5.90;2.95;;;;;;;4.02;40.68;102033.72;5041875;28;20052;-81
2022/02/28 01:12:29;;;;;;;5.82;3.70;;;;;;;4.00;40.32;102027.78;5046001;28;20051;-79
2022/02/28 01:15:15;;;;;;;3.83;2.42;;;;;;;3.92;40.03;102022.75;5054403;28;20048;-81
2022/02/28 01:18:00;;;;;;;10.43;3.10;;;;;;;3.83;40.12;102016.94;5055076;28;20076;-82
2022/02/28 01:20:45;;;;;;;5.13;3.03;;;;;;;3.97;40.19;102018.31;5046735;28;20087;-81
2022/02/28 01:23:30;;;;;;;5.15;3.15;;;;;;;3.84;40.61;102016.72;5043715;28;20433;-80
2022/02/28 01:26:15;;;;;;;5.13;2.72;;;;;;;3.96;42.16;102022.06;5054302;28;20418;-81
2022/02/28 01:29:00;;;;;;;4.47;3.20;;;;;;;3.69;41.83;102008.34;5040304;28;20072;-81
2022/02/28 01:31:45;;;;;;;6.05;3.13;;;;;;;3.55;43.20;102011.53;5043604;28;20094;-81
2022/02/28 01:34:30;;;;;;;7.50;3.47;;;;;;;3.37;42.85;102010.59;5054164;28;20424;-81
2022/02/28 01:37:14;;;;;;;7.57;3.45;;;;;;;3.25;42.97;101999.03;5053730;28;20047;-81
2022/02/28 01:39:59;;;;;;;8.98;3.38;;;;;;;3.78;43.70;102003.41;5054830;28;20052;-81
2022/02/28 01:42:44;;;;;;;5.43;2.67;;;;;;;3.84;43.49;101995.19;5040993;28;20044;-81
2022/02/28 01:45:29;;;;;;;8.63;3.70;;;;;;;3.41;42.74;101986.75;5039412;28;20048;-81
2022/02/28 01:48:14;;;;;;;6.32;2.28;;;;;;;3.28;43.24;101990.53;5054561;28;20048;-81
2022/02/28 01:50:59;;;;;;;;;;;;;;;3.36;42.90;101989.31;5042693;28;20056;-81
2022/02/28 01:53:44;;;;;;;7.22;3.63;;;;;;;3.24;43.33;101986.69;5053849;28;19912;-80
2022/02/28 01:56:29;;;;;;;17.20;11.75;;;;;;;3.29;43.19;101986.78;5041769;28;20060;-80
2022/02/28 01:59:14;;;;;;;7.65;3.28;;;;;;;3.21;42.95;101980.94;5054926;28;20044;-80
2022/02/28 02:01:59;;;;;;;5.55;3.42;;;;;;;3.21;43.40;101967.50;5040860;28;20052;-80
2022/02/28 02:04:43;;;;;;;6.45;2.83;;;;;;;3.09;43.20;101970.22;5054528;28;20048;-81
2022/02/28 02:07:29;;;;;;;8.10;3.47;;;;;;;3.27;44.09;101967.38;5053754;28;20521;-80
2022/02/28 02:10:15;;;;;;;7.05;2.88;;;;;;;3.24;43.31;101965.16;5054253;28;20055;-80
2022/02/28 02:13:01;;;;;;;4.90;2.95;;;;;;;3.25;43.57;101961.41;5044370;28;20059;-81
2022/02/28 02:15:47;;;;;;;11.73;3.13;;;;;;;3.14;43.18;101954.19;5041815;28;20040;-80
2022/02/28 02:18:33;;;;;;;4.20;2.60;;;;;;;3.60;41.88;101955.97;5056236;28;20056;-81
2022/02/28 02:21:17;;;;;;;2.72;2.17;;;;;;;3.60;42.11;101958.69;5047307;28;20518;-80
2022/02/28 02:24:03;;;;;;;5.72;3.65;;;;;;;3.69;41.34;101962.63;5054065;28;20074;-79
2022/02/28 02:26:48;;;;;;;3.60;2.22;;;;;;;3.49;42.41;101953.31;5040820;28;20044;-81
2022/02/28 02:29:36;;;;;;;4.28;1.95;;;;;;;3.62;42.13;101950.34;5054369;28;20421;-80
2022/02/28 02:32:21;;;;;;;9.43;3.70;;;;;;;3.65;42.20;101945.31;5041983;28;20047;-80
2022/02/28 02:35:11;;;;;;;4.00;3.20;;;;;;;3.43;43.02;101945.16;5040300;28;20052;-81
2022/02/28 02:37:55;;;;;;;4.07;2.85;;;;;;;3.34;42.99;101943.06;5044090;28;20048;-82
2022/02/28 02:40:40;;;;;;;3.38;2.50;;;;;;;3.38;44.46;101945.03;5042548;28;20055;-82
2022/02/28 02:43:25;;;;;;;4.90;2.15;;;;;;;3.38;45.33;101944.22;5040547;28;20047;-81
2022/02/28 02:46:10;;;;;;;3.33;2.27;;;;;;;2.88;44.66;101933.19;5053081;28;20044;-81
2022/02/28 02:48:55;;;;;;;4.50;2.20;;;;;;;2.92;44.14;101942.41;5053378;28;20060;-81
2022/02/28 02:51:42;;;;;;;4.88;2.88;;;;;;;2.88;44.66;101930.50;5040536;28;20409;-79
2022/02/28 02:54:28;;;;;;;6.50;3.35;;;;;;;3.08;44.34;101932.81;5052873;28;20052;-81
2022/02/28 02:57:13;;;;;;;4.63;2.53;;;;;;;3.12;44.22;101932.09;5053152;28;20048;-80
2022/02/28 03:00:06;;;;;;;5.45;2.83;;;;;;;2.73;45.63;101932.84;5040844;28;20049;-81
2022/02/28 03:02:57;;;;;;;5.95;3.17;;;;;;;2.87;46.18;101928.84;5043969;28;20052;-81
2022/02/28 03:05:42;;;;;;;10.82;3.15;;;;;;;2.70;45.53;101927.91;5041848;28;20048;-82
2022/02/28 03:08:27;;;;;;;8.55;2.60;;;;;;;2.66;47.07;101926.75;5038540;28;20413;-82
2022/02/28 03:11:13;;;;;;;6.70;2.80;;;;;;;2.52;47.11;101926.97;5052706;28;20409;-80
2022/02/28 03:13:58;;;;;;;7.55;3.13;;;;;;;2.63;46.02;101916.47;5042117;28;20056;-80
2022/02/28 03:16:43;;;;;;;5.88;2.72;;;;;;;2.79;47.08;101910.41;5052694;28;20112;-81
2022/02/28 03:19:28;;;;;;;6.10;3.25;;;;;;;2.68;47.05;101905.88;5052945;28;20051;-80
2022/02/28 03:22:13;;;;;;;2.60;2.00;;;;;;;2.67;46.65;101909.59;5042223;28;20048;-82
2022/02/28 03:25:03;;;;;;;4.63;3.20;;;;;;;2.79;47.54;101910.41;5054046;28;20414;-81
2022/02/28 03:27:51;;;;;;;11.10;3.20;;;;;;;3.10;48.13;101909.22;5043231;28;20528;-81
2022/02/28 03:30:36;;;;;;;4.00;2.95;;;;;;;2.62;46.58;101894.19;5052830;28;20075;-80
2022/02/28 03:33:21;;;;;;;6.13;2.58;;;;;;;2.74;46.85;101899.56;5052515;28;20409;-80
2022/02/28 03:36:06;;;;;;;4.25;2.50;;;;;;;2.61;47.63;101894.41;5041299;28;20047;-80
2022/02/28 03:38:55;;;;;;;4.28;3.13;;;;;;;2.44;47.19;101888.91;5052283;28;20048;-80
2022/02/28 03:41:40;;;;;;;4.83;2.80;;;;;;;2.46;47.70;101895.69;5039372;28;20059;-80
2022/02/28 03:44:25;;;;;;;4.90;2.50;;;;;;;2.41;47.55;101892.88;5037330;28;20592;-79
2022/02/28 03:47:16;;;;;;;3.70;2.70;;;;;;;2.52;48.41;101883.22;5052539;28;20040;-80
2022/02/28 03:50:19;;;;;;;5.80;2.85;;;;;;;2.82;48.99;101888.44;5052475;28;20060;-79
2022/02/28 03:53:05;;;;;;;5.95;2.72;;;;;;;2.66;48.01;101878.41;5042613;28;20051;-80
2022/02/28 03:55:54;;;;;;;4.68;2.92;;;;;;;2.65;47.42;101879.47;5052172;28;20406;-80
2022/02/28 03:58:39;;;;;;;3.53;2.45;;;;;;;2.15;48.16;101878.03;5038263;28;20052;-80
2022/02/28 04:01:25;;;;;;;3.53;2.42;;;;;;;2.46;48.58;101871.53;5052580;28;20047;-80
2022/02/28 04:04:13;;;;;;;8.40;3.25;;;;;;;2.56;48.03;101873.63;5040021;28;20048;-79
2022/02/28 04:06:59;;;;;;;5.05;2.25;;;;;;;2.46;48.21;101868.84;5018870;28;20068;-80
2022/02/28 04:09:45;;;;;;;5.80;2.50;;;;;;;2.86;48.19;101863.56;5022348;28;20056;-80
2022/02/28 04:12:32;;;;;;;4.68;2.70;;;;;;;3.02;46.86;101867.41;5020264;28;20044;-81
2022/02/28 04:15:16;;;;;;;;;;;;;;;2.89;48.38;101864.97;5023143;28;20044;-82
2022/02/28 04:18:02;;;;;;;4.15;2.30;;;;;;;2.89;49.47;101862.31;5056047;28;19912;-82
2022/02/28 04:21:02;;;;;;;5.53;2.55;;;;;;;2.54;47.38;101844.31;5032648;28;20406;-82
2022/02/28 04:23:51;;;;;;;6.70;2.85;;;;;;;2.68;48.89;101844.09;5042598;28;20047;-80
2022/02/28 04:26:36;;;;;;;5.72;2.75;;;;;;;2.66;47.04;101843.50;5049623;28;20642;-81
2022/02/28 04:29:22;;;;;;;4.93;2.67;;;;;;;2.65;47.70;101836.50;5053112;28;20059;-79
2022/02/28 04:32:11;;;;;;;5.50;2.80;;;;;;;2.66;47.25;101833.59;5048350;28;20052;-81
2022/02/28 04:35:04;;;;;;;5.35;2.80;;;;;;;2.69;46.28;101832.31;5037017;28;20663;-81
2022/02/28 04:37:52;;;;;;;4.03;2.63;;;;;;;2.52;47.27;101830.34;5051833;28;20052;-81
2022/02/28 04:40:37;;;;;;;4.27;2.43;;;;;;;2.50;48.13;101828.94;5046039;28;20048;-80
2022/02/28 04:43:24;;;;;;;8.70;3.25;;;;;;;2.39;48.79;101833.25;5041816;28;20064;-81
2022/02/28 04:46:09;;;;;;;10.38;2.85;;;;;;;2.58;48.99;101823.22;5055707;28;20040;-81
2022/02/28 04:48:54;;;;;;;;;;;;;;;2.26;48.63;101824.63;5053417;28;20051;-80
2022/02/28 04:51:50;;;;;;;6.78;3.53;;;;;;;2.40;49.84;101820.66;5049635;28;19912;-79
2022/02/28 04:54:37;;;;;;;7.05;3.80;;;;;;;2.36;48.66;101817.63;5040328;28;20421;-82
2022/02/28 04:57:22;;;;;;;6.97;4.25;;;;;;;2.41;49.98;101819.59;5035574;28;20044;-81
2022/02/28 05:00:08;;;;;;;;;;;;;;;2.43;49.48;101821.00;5038563;28;20051;-82
2022/02/28 05:02:55;;;;;;;7.65;3.78;;;;;;;2.42;49.85;101803.28;5036442;28;19932;-82
2022/02/28 05:05:44;;;;;;;7.82;4.65;;;;;;;2.52;49.04;101803.50;5024463;28;20052;-82
2022/02/28 05:08:28;;;;;;;8.73;3.78;;;;;;;2.46;48.70;101800.94;5042713;28;20056;-81
2022/02/28 05:11:13;;;;;;;9.25;3.85;;;;;;;2.48;48.87;101801.53;5052586;28;20067;-81
2022/02/28 05:13:59;;;;;;;9.30;4.82;;;;;;;2.62;49.69;101796.72;5038828;28;20052;-80
2022/02/28 05:16:45;;;;;;;7.45;4.32;;;;;;;2.69;48.51;101798.22;5120720;22;20059;-82
2022/02/28 05:19:30;;;;;;;6.20;3.50;;;;;;;2.45;49.47;101796.59;5076698;28;20512;-82
2022/02/28 05:22:16;;;;;;;13.70;4.82;;;;;;;2.48;51.73;101796.16;5057746;28;20048;-82
2022/02/28 05:25:06;;;;;;;14.80;5.72;;;;;;;2.51;49.87;101796.50;5057653;28;20048;-83
2022/02/28 05:27:52;;;;;;;13.90;5.65;;;;;;;2.56;50.70;101793.09;5047313;28;20515;-81
2022/02/28 05:30:38;;;;;;;8.80;4.57;;;;;;;2.74;51.48;101794.84;5063562;28;20055;-82
2022/02/28 05:33:26;;;;;;;10.88;4.88;;;;;;;2.83;50.54;101796.09;5057261;28;20044;-82
2022/02/28 05:36:13;;;;;;;11.13;5.20;;;;;;;2.79;51.21;101790.38;5047459;28;20044;-81
2022/02/28 05:39:06;;;;;;;8.93;5.03;;;;;;;2.67;51.71;101791.44;5071926;28;20050;-81
2022/02/28 05:41:53;;;;;;;11.40;4.32;;;;;;;2.47;51.94;101789.97;5085846;28;20055;-81
2022/02/28 05:44:38;;;;;;;13.18;4.60;;;;;;;2.09;51.86;101793.09;5087969;28;20055;-82
2022/02/28 05:47:23;;;;;;;6.78;3.72;;;;;;;1.96;51.34;101782.59;5053336;28;20540;-82
2022/02/28 05:50:11;;;;;;;10.25;4.28;;;;;;;1.85;52.39;101790.63;5066397;28;20055;-83
2022/02/28 05:52:56;;;;;;;8.68;4.00;;;;;;;1.70;52.48;101781.16;5064434;28;20043;-82
2022/02/28 05:55:41;;;;;;;10.70;3.75;;;;;;;1.79;52.55;101780.81;5062419;28;20416;-82
2022/02/28 05:58:26;;;;;;;7.53;3.17;;;;;;;1.85;52.59;101774.53;5068848;28;20104;-84
2022/02/28 06:01:11;;;;;;;5.75;3.42;;;;;;;1.76;52.44;101781.28;5052078;28;20052;-81
2022/02/28 06:03:56;;;;;;;6.53;3.28;;;;;;;2.04;52.96;101794.84;5062910;28;20058;-82
2022/02/28 06:06:41;;;;;;;7.18;3.33;;;;;;;2.35;51.45;101778.41;5072434;28;20043;-80
2022/02/28 06:09:25;;;;;;;7.75;4.00;;;;;;;2.18;51.37;101782.03;5063330;28;20047;-81
2022/02/28 06:12:10;;;;;;;9.07;3.55;;;;;;;2.24;52.62;101779.22;5062572;28;20048;-82
2022/02/28 06:14:55;;;;;;;6.07;3.35;;;;;;;2.45;52.54;101784.00;5066139;28;20048;-80
2022/02/28 06:17:40;;;;;;;8.68;3.78;;;;;;;2.49;51.37;101787.84;5061360;28;20047;-81
2022/02/28 06:20:25;;;;;;;5.43;3.43;;;;;;;2.54;50.78;101779.91;5062672;28;20051;-81
2022/02/28 06:23:14;;;;;;;6.82;4.03;;;;;;;2.57;51.11;101782.13;5066855;28;20408;-80
2022/02/28 06:25:59;;;;;;;15.07;5.50;;;;;;;3.87;49.32;101787.53;5065927;28;20416;-81
2022/02/28 06:28:44;;;;;;;15.10;4.18;;;;;;;5.97;42.39;101783.41;5064630;28;20055;-81
2022/02/28 06:31:29;;;;;;;8.60;4.20;;;;;;;7.63;38.00;101796.03;5072472;28;20048;-81
2022/02/28 06:34:14;;;;;;;19.15;3.22;;;;;;;8.21;37.15;101791.19;5060693;28;20059;-80
2022/02/28 06:36:59;;;;;;;15.75;3.58;;;;;;;8.56;35.65;101796.56;5080455;28;20048;-81
2022/02/28 06:39:45;;;;;;;15.30;3.60;;;;;;;10.35;33.35;101795.22;5062744;28;20056;-81
2022/02/28 06:42:30;;;;;;;23.83;4.82;;;;;;;7.40;36.83;101801.16;5051643;28;20045;-81
2022/02/28 06:45:17;;;;;;;13.60;3.38;;;;;;;6.04;39.79;101794.00;5058157;28;20056;-82
2022/02/28 06:48:02;;;;;;;6.38;3.05;;;;;;;5.59;41.19;101794.34;5042804;28;20048;-81
2022/02/28 06:50:48;;;;;;;4.80;2.78;;;;;;;4.55;44.20;101793.69;5057436;28;20436;-80
2022/02/28 06:53:33;;;;;;;12.20;4.05;;;;;;;4.44;44.15;101786.53;5062554;28;20047;-80
2022/02/28 06:56:18;;;;;;;6.25;3.30;;;;;;;4.32;44.35;101783.91;5062269;28;20043;-80
2022/02/28 06:59:02;;;;;;;7.03;3.40;;;;;;;4.24;44.95;101776.28;5081315;28;20055;-82
2022/02/28 07:01:48;;;;;;;9.90;5.15;;;;;;;3.94;45.60;101779.31;5056899;28;20290;-82
2022/02/28 07:05:02;;;;;;;14.60;4.70;;;;;;;4.21;44.23;101772.22;5071187;28;20127;-81
2022/02/28 07:07:47;;;;;;;8.90;3.33;;;;;;;4.22;44.51;101764.94;5057226;28;20036;-82
2022/02/28 07:10:32;;;;;;;16.35;3.63;;;;;;;4.50;44.39;101766.69;5052995;28;20060;-80
2022/02/28 07:13:17;;;;;;;14.57;4.33;;;;;;;4.94;44.55;101767.50;5066130;28;20047;-81
2022/02/28 07:16:02;;;;;;;11.63;4.90;;;;;;;4.97;43.63;101783.19;5052097;28;20040;-81
2022/02/28 07:18:47;;;;;;;11.27;4.15;;;;;;;5.02;42.71;101775.97;5057035;28;20052;-81
2022/02/28 07:21:32;;;;;;;9.10;3.25;;;;;;;5.64;43.10;101770.13;5057438;28;20059;-81
2022/02/28 07:24:16;;;;;;;8.80;3.77;;;;;;;5.25;43.03;101779.44;5067519;28;20064;-82
2022/02/28 07:27:02;;;;;;;6.03;3.30;;;;;;;5.33;43.23;101779.81;5062378;28;20043;-81
2022/02/28 07:29:46;;;;;;;17.10;4.70;;;;;;;5.67;42.21;101788.50;5059410;28;20681;-81
2022/02/28 07:32:31;;;;;;;12.00;4.88;;;;;;;5.62;41.48;101777.66;5058668;28;20432;-83
2022/02/28 07:35:17;;;;;;;6.20;3.22;;;;;;;6.03;40.99;101778.03;5054338;28;20047;-82
2022/02/28 07:38:02;;;;;;;6.72;3.45;;;;;;;6.50;41.95;101775.38;5058379;28;20048;-83
2022/02/28 07:40:48;;;;;;;10.88;4.18;;;;;;;6.13;40.40;101775.41;5070543;28;20043;-83
2022/02/28 07:43:33;;;;;;;7.10;3.55;;;;;;;6.66;39.76;101780.59;5059349;28;20525;-82
2022/02/28 07:46:18;;;;;;;5.13;3.05;;;;;;;7.31;38.43;101771.91;5057562;28;20052;-83
2022/02/28 07:49:04;;;;;;;5.57;2.70;;;;;;;7.94;38.66;101768.97;5059415;28;20056;-81
2022/02/28 07:51:49;;;;;;;;;;;;;;;8.01;37.53;101774.94;5064978;28;20044;-83
2022/02/28 07:54:34;;;;;;;5.28;3.35;;;;;;;7.68;37.61;101763.56;5055521;28;19920;-82
2022/02/28 07:57:18;;;;;;;9.18;3.40;;;;;;;7.62;39.82;101761.94;5064954;28;20440;-83
2022/02/28 08:00:05;;;;;;;4.38;2.53;;;;;;;9.22;37.33;101754.78;5057212;28;20052;-81
2022/02/28 08:02:56;;;;;;;8.27;3.30;;;;;;;9.31;35.52;101756.63;5071987;28;20560;-82
2022/02/28 08:05:41;;;;;;;17.85;4.10;;;;;;;9.29;35.62;101761.53;5064404;28;20047;-82
2022/02/28 08:08:25;;;;;;;7.00;3.17;;;;;;;9.44;37.08;101752.50;5063750;28;20048;-81
2022/02/28 08:11:10;;;;;;;5.25;2.88;;;;;;;9.30;35.82;101755.00;5062315;28;20048;-81
2022/02/28 08:13:55;;;;;;;8.70;3.50;;;;;;;9.44;36.18;101747.88;5059823;28;20047;-82
2022/02/28 08:16:40;;;;;;;5.45;2.88;;;;;;;9.45;36.05;101746.75;5058846;28;20047;-82
2022/02/28 08:19:25;;;;;;;6.47;2.83;;;;;;;9.15;36.49;101746.13;5052016;28;20052;-83
2022/02/28 08:22:11;;;;;;;6.55;3.40;;;;;;;9.12;37.20;101752.94;5044071;28;20048;-80
2022/02/28 08:24:58;;;;;;;6.37;3.10;;;;;;;8.76;37.60;101754.19;5070861;28;20044;-81
2022/02/28 08:27:43;;;;;;;8.18;3.63;;;;;;;8.98;36.89;101749.22;5075781;28;20294;-81
2022/02/28 08:30:27;;;;;;;3.88;2.30;;;;;;;9.74;36.41;101738.69;5066624;28;20354;-81
2022/02/28 08:33:12;;;;;;;7.22;3.08;;;;;;;10.29;35.74;101744.72;5057163;28;20532;-81
2022/02/28 08:35:57;;;;;;;11.40;3.37;;;;;;;10.21;34.91;101739.88;5056010;28;20043;-81
2022/02/28 08:38:42;;;;;;;4.25;2.63;;;;;;;9.84;36.08;101738.59;5058041;28;20047;-81
2022/02/28 08:41:27;;;;;;;6.25;3.40;;;;;;;10.99;34.66;101740.31;5052945;28;20052;-81
2022/02/28 08:44:11;;;;;;;6.65;2.78;;;;;;;11.03;34.19;101746.00;5057729;28;20060;-82
2022/02/28 08:46:56;;;;;;;7.07;3.53;;;;;;;11.49;32.96;101737.97;5054598;28;20044;-80
2022/02/28 08:49:41;;;;;;;14.75;2.80;;;;;;;11.51;33.38;101744.75;5062322;28;20512;-81
2022/02/28 08:52:26;;;;;;;6.22;2.75;;;;;;;11.58;32.79;101741.63;5066367;28;20040;-82
2022/02/28 08:55:12;;;;;;;6.47;3.60;;;;;;;11.37;32.93;101734.91;5058180;28;20056;-82
2022/02/28 08:57:57;;;;;;;6.55;3.30;;;;;;;11.46;33.66;101739.38;5061582;28;20047;-81
2022/02/28 09:00:42;;;;;;;24.73;4.85;;;;;;;11.56;33.41;101741.13;5054729;28;20044;-82
2022/02/28 09:03:27;;;;;;;29.83;5.03;;;;;;;11.51;34.13;101742.03;5060473;28;20422;-82
2022/02/28 09:06:11;;;;;;;7.68;3.45;;;;;;;11.09;33.69;101742.09;5067189;28;20044;-81
2022/02/28 09:08:56;;;;;;;7.35;4.30;;;;;;;11.48;33.54;101734.44;5053233;28;20535;-80
2022/02/28 09:11:41;;;;;;;9.43;5.47;;;;;;;11.38;33.42;101733.78;5067565;28;20527;-83
2022/02/28 09:14:26;;;;;;;23.17;10.52;;;;;;;11.25;35.51;101729.09;5050352;28;20052;-82
2022/02/28 09:17:11;;;;;;;35.85;10.40;;;;;;;11.54;34.54;101721.53;5047400;28;20037;-81
2022/02/28 09:19:56;;;;;;;26.63;8.65;;;;;;;11.53;35.26;101726.19;5058635;28;20031;-82
2022/02/28 09:22:42;;;;;;;8.68;4.75;;;;;;;11.20;33.18;101718.28;5063485;28;20052;-84
2022/02/28 09:25:27;;;;;;;8.60;4.03;;;;;;;10.24;33.90;101712.97;5067980;28;20047;-82
2022/02/28 09:28:13;;;;;;;12.48;5.38;;;;;;;10.14;35.41;101715.75;5060056;28;20060;-81
2022/02/28 09:30:57;;;;;;;9.88;4.40;;;;;;;10.05;35.46;101716.66;5066445;28;20045;-81
2022/02/28 09:33:43;;;;;;;11.07;4.50;;;;;;;10.04;35.09;101712.31;5063823;28;20520;-80
2022/02/28 09:36:27;;;;;;;8.63;4.28;;;;;;;10.06;35.33;101712.81;5063697;28;20044;-81
2022/02/28 09:39:12;;;;;;;7.83;3.43;;;;;;;9.93;35.73;101708.88;5061872;28;20052;-81
2022/02/28 09:42:12;;;;;;;6.40;3.72;;;;;;;9.93;35.85;101708.09;5062016;28;20805;-81
2022/02/28 09:45:18;;;;;;;6.90;3.60;;;;;;;9.90;35.08;101703.22;5064415;28;20067;-81
2022/02/28 09:48:23;;;;;;;7.88;3.88;;;;;;;9.93;35.56;101708.88;5068584;28;20040;-80
2022/02/28 09:51:27;;;;;;;8.15;4.07;;;;;;;9.91;35.80;101705.63;5071812;28;20414;-80
2022/02/28 09:54:30;;;;;;;7.18;4.40;;;;;;;9.92;36.33;101696.41;5067719;28;20047;-81
2022/02/28 09:57:35;;;;;;;10.48;4.47;;;;;;;10.02;36.38;101693.56;5071365;28;20052;-80
2022/02/28 10:00:41;;;;;;;9.30;4.15;;;;;;;10.06;35.20;101689.19;5059120;28;20231;-80
2022/02/28 10:03:27;;;;;;;6.22;3.60;;;;;;;10.04;35.23;101685.97;5067134;28;20048;-80
2022/02/28 10:06:12;;;;;;;7.53;4.15;;;;;;;10.13;35.58;101691.56;5065831;28;20048;-80
2022/02/28 10:09:04;;;;;;;5.07;3.00;;;;;;;10.12;34.83;101685.31;5060050;28;20040;-80
2022/02/28 10:11:51;;;;;;;4.72;3.50;;;;;;;10.23;33.97;101683.34;5058460;28;20039;-80
2022/02/28 10:14:36;;;;;;;7.75;4.18;;;;;;;10.34;34.04;101681.31;5068241;28;20044;-79
2022/02/28 10:17:21;;;;;;;;;;;;;;;10.25;33.61;101687.41;5062930;28;20044;-81
2022/02/28 10:20:13;;;;;;;8.43;4.05;;;;;;;10.16;33.51;101682.84;5072157;28;19920;-81
2022/02/28 10:23:02;;;;;;;6.43;3.65;;;;;;;10.21;33.72;101678.19;5064490;28;20056;-81
2022/02/28 10:25:53;;;;;;;7.35;3.67;;;;;;;10.35;33.07;101678.31;5057072;28;20416;-81
2022/02/28 10:29:04;;;;;;;9.10;3.55;;;;;;;10.47;33.13;101675.97;5060283;28;20052;-82
2022/02/28 10:32:11;;;;;;;10.88;3.30;;;;;;;10.34;33.18;101673.16;5070035;28;20687;-81
2022/02/28 10:38:32;;;;;;;8.60;3.63;;;;;;;10.37;32.71;101667.13;5050364;28;20043;-81
2022/02/28 10:41:30;;;;;;;5.03;3.28;;;;;;;10.55;31.94;101669.91;5061602;28;20513;-83
2022/02/28 10:44:14;;;;;;;5.63;2.80;;;;;;;10.58;31.55;101669.31;5067292;28;20063;-80
2022/02/28 10:47:06;;;;;;;3.58;2.40;;;;;;;10.63;32.24;101663.00;5062709;28;20044;-83
2022/02/28 10:49:57;;;;;;;7.70;3.13;;;;;;;10.74;32.05;101659.03;5079224;28;20047;-84
2022/02/28 10:52:57;;;;;;;10.85;3.53;;;;;;;10.80;30.97;101657.88;5074158;28;20036;-85
2022/02/28 10:55:42;;;;;;;12.60;4.28;;;;;;;10.91;31.41;101656.63;5060272;28;20056;-83
2022/02/28 10:58:27;;;;;;;7.13;3.50;;;;;;;11.01;30.64;101650.22;5053891;28;20530;-84
2022/02/28 11:01:12;;;;;;;7.13;2.58;;;;;;;10.92;29.91;101652.00;5071483;28;20052;-86
2022/02/28 11:03:56;;;;;;;4.80;2.60;;;;;;;11.05;30.73;101651.25;5076012;28;20048;-82
2022/02/28 11:06:47;;;;;;;5.85;2.78;;;;;;;11.12;29.57;101649.75;5059262;28;20056;-85
2022/02/28 11:09:36;;;;;;;6.35;3.55;;;;;;;11.22;30.65;101648.00;5054676;28;20047;-84
2022/02/28 11:12:30;;;;;;;6.00;3.08;;;;;;;11.34;29.43;101634.72;5055559;28;20048;-84
2022/02/28 11:15:19;;;;;;;10.07;3.22;;;;;;;11.31;29.36;101632.59;5071369;28;20044;-84
2022/02/28 11:18:03;;;;;;;7.95;3.50;;;;;;;11.29;29.88;101627.44;5052882;28;20067;-84
2022/02/28 11:20:49;;;;;;;4.60;3.30;;;;;;;11.38;29.73;101624.84;5070109;28;20520;-84
2022/02/28 11:23:46;;;;;;;9.48;3.75;;;;;;;11.69;30.13;101627.84;5074990;28;20055;-84
2022/02/28 11:26:30;;;;;;;14.20;3.60;;;;;;;11.68;28.68;101629.78;5061147;28;20051;-83
2022/02/28 11:29:15;;;;;;;6.63;3.35;;;;;;;11.78;29.60;101626.91;5073121;23;20051;-84
2022/02/28 11:32:00;;;;;;;4.07;2.50;;;;;;;11.85;28.46;101619.13;5050273;28;20540;-82
2022/02/28 11:34:50;;;;;;;12.82;3.20;;;;;;;12.03;29.06;101613.91;5053019;28;20062;-83
2022/02/28 11:37:35;;;;;;;13.48;3.42;;;;;;;12.02;29.28;101607.66;5057649;28;20043;-82
2022/02/28 11:40:20;;;;;;;4.80;3.15;;;;;;;12.10;28.99;101614.28;5064655;28;20512;-82
2022/02/28 11:43:08;;;;;;;12.35;3.13;;;;;;;12.13;28.16;101614.50;5061605;28;20044;-82
2022/02/28 11:45:55;;;;;;;8.43;4.38;;;;;;;12.26;28.31;101613.69;5059504;28;20412;-81
2022/02/28 11:48:52;;;;;;;9.75;3.13;;;;;;;12.55;27.12;101605.16;5057202;28;20043;-81
2022/02/28 11:51:39;;;;;;;6.93;3.33;;;;;;;12.78;27.02;101603.28;5061094;28;20052;-82
2022/02/28 11:54:26;;;;;;;6.32;4.32;;;;;;;13.19;27.42;101587.59;5059014;28;20060;-83
2022/02/28 11:57:11;;;;;;;7.88;4.47;;;;;;;13.26;28.03;101581.66;5072435;28;20046;-82
2022/02/28 11:59:56;;;;;;;5.20;3.55;;;;;;;13.84;26.94;101577.94;5060534;28;20102;-81
2022/02/28 12:02:40;;;;;;;8.27;4.57;;;;;;;14.15;26.73;101578.69;5072443;28;20047;-82
2022/02/28 12:05:41;;;;;;;10.05;3.67;;;;;;;15.98;23.87;101584.53;5074048;28;20046;-81
2022/02/28 12:08:38;;;;;;;11.50;5.05;;;;;;;21.59;17.43;101579.44;5067232;28;20035;-81
2022/02/28 12:11:28;;;;;;;20.10;10.63;;;;;;;27.19;12.74;101578.19;5060359;28;20508;-82
2022/02/28 12:14:13;;;;;;;9.02;4.35;;;;;;;29.05;10.78;101578.09;5073238;28;20044;-84
2022/02/28 12:20:29;;;;;;;12.43;4.20;;;;;;;29.10;10.33;101574.81;5065695;28;20358;-86
2022/02/28 12:23:16;;;;;;;8.80;5.07;;;;;;;28.29;10.74;101570.97;5079981;28;20500;-84
2022/02/28 12:26:03;;;;;;;9.20;4.00;;;;;;;29.66;9.90;101573.94;5063643;28;20052;-85
2022/02/28 12:28:51;;;;;;;4.47;3.35;;;;;;;31.28;8.49;101571.25;5062679;28;20040;-84
2022/02/28 12:31:40;;;;;;;9.90;4.53;;;;;;;31.09;9.49;101566.47;5072083;28;20052;-85
2022/02/28 12:34:34;;;;;;;7.30;4.45;;;;;;;29.84;9.81;101564.44;5046910;28;20043;-85
2022/02/28 12:37:24;;;;;;;10.43;4.38;;;;;;;29.58;10.58;101569.69;5049224;28;20140;-85
2022/02/28 12:40:12;;;;;;;12.30;4.47;;;;;;;29.73;10.04;101562.63;5049854;28;20033;-86
2022/02/28 12:42:58;;;;;;;5.18;3.78;;;;;;;29.28;10.87;101559.31;5087590;28;20044;-82
2022/02/28 12:45:43;;;;;;;6.13;4.10;;;;;;;28.21;10.57;101549.88;5061734;28;20059;-84
2022/02/28 12:48:29;;;;;;;7.28;4.35;;;;;;;27.97;10.69;101543.28;5067280;28;20107;-85
2022/02/28 12:51:18;;;;;;;8.05;4.25;;;;;;;29.43;10.04;101545.09;5084185;28;20048;-81
2022/02/28 12:54:15;;;;;;;10.82;4.50;;;;;;;29.91;9.86;101547.53;5082893;28;20515;-83
2022/02/28 12:57:01;;;;;;;5.20;4.15;;;;;;;30.84;9.52;101533.25;5081123;28;20052;-86
2022/02/28 12:59:46;;;;;;;;;;;;;;;32.13;8.81;101541.81;5058301;28;20048;-84
2022/02/28 13:02:33;;;;;;;;;;;;;;;35.09;6.70;101537.97;5046059;28;19913;-85
2022/02/28 13:05:19;;;;;;;;;;;;;;;32.97;7.86;101540.56;5092863;28;19912;-85
2022/02/28 13:08:04;;;;;;;;;;;;;;;31.03;9.36;101534.50;5089176;28;20292;-86
2022/02/28 13:11:06;;;;;;;;;;;;;;;30.29;9.54;101525.56;5059617;28;19916;-87